DWI210 MDSD-KEWR
Flight info
| Callsign | DWI210 |
|---|---|
| Flight time | N/A |
| Altitude | 37000 |
| Route | LERED2J LERED DCT LUCTI/M080F320 L454 GRAMN/M080F340 L454 OKONU/N0465F350 DCT YAALE Y497 MOUGH/N0470F340 Y497 SUBBS DCT CYN DCT GXU DCT RBV V249 METRO |
| Aircraft | B738/M-SDE2E3FGHIRWXY/LB1 |
Departure
| Time | N/A |
|---|---|
| Airport | Las Américas International Airport (MDSD) |
Arrival
| Time | 2026-05-07 01:21 |
|---|---|
| Airport | Newark Liberty International Airport (KEWR) |
| Time | Latitude | Longitude | Altitude | Speed | Heading |
|---|---|---|---|---|---|
| 2026-05-07 00:37 | 39.44892 | -72.43049 | 34670 ft | 360 kts | 311° |
| 2026-05-07 00:37 | 39.46830 | -72.45111 | 34485 ft | 362 kts | 311° |
| 2026-05-07 00:37 | 39.48780 | -72.47187 | 34297 ft | 364 kts | 311° |
| 2026-05-07 00:37 | 39.50742 | -72.49275 | 34114 ft | 365 kts | 311° |
| 2026-05-07 00:38 | 39.52706 | -72.51368 | 33933 ft | 366 kts | 311° |
| 2026-05-07 00:38 | 39.54679 | -72.53473 | 33566 ft | 370 kts | 311° |
| 2026-05-07 00:38 | 39.56652 | -72.55582 | 33185 ft | 375 kts | 311° |
| 2026-05-07 00:38 | 39.58676 | -72.57746 | 32824 ft | 378 kts | 311° |
| 2026-05-07 00:39 | 39.60709 | -72.59918 | 32442 ft | 378 kts | 311° |
| 2026-05-07 00:39 | 39.62731 | -72.62080 | 32086 ft | 375 kts | 311° |
| 2026-05-07 00:39 | 39.64747 | -72.64236 | 31725 ft | 378 kts | 311° |
| 2026-05-07 00:39 | 39.66785 | -72.66421 | 31315 ft | 382 kts | 311° |
| 2026-05-07 00:40 | 39.68848 | -72.68636 | 30820 ft | 388 kts | 311° |
| 2026-05-07 00:40 | 39.70927 | -72.70865 | 30329 ft | 385 kts | 311° |
| 2026-05-07 00:40 | 39.72998 | -72.73087 | 29844 ft | 389 kts | 311° |
| 2026-05-07 00:40 | 39.75095 | -72.75344 | 29305 ft | 395 kts | 311° |
| 2026-05-07 00:41 | 39.77224 | -72.77636 | 28772 ft | 400 kts | 311° |
| 2026-05-07 00:41 | 39.79312 | -72.80006 | 28245 ft | 393 kts | 304° |
| 2026-05-07 00:41 | 39.80811 | -72.82878 | 27718 ft | 380 kts | 291° |
| 2026-05-07 00:41 | 39.81793 | -72.86019 | 27198 ft | 366 kts | 283° |
| 2026-05-07 00:42 | 39.82277 | -72.89186 | 26683 ft | 348 kts | 272° |
| 2026-05-07 00:42 | 39.82321 | -72.92269 | 26114 ft | 335 kts | 269° |
| 2026-05-07 00:42 | 39.82293 | -72.95230 | 25522 ft | 327 kts | 269° |
| 2026-05-07 00:42 | 39.82252 | -72.98142 | 24930 ft | 318 kts | 269° |
| 2026-05-07 00:43 | 39.82213 | -73.00989 | 24360 ft | 311 kts | 269° |
| 2026-05-07 00:43 | 39.82180 | -73.03775 | 23795 ft | 305 kts | 269° |
| 2026-05-07 00:43 | 39.82150 | -73.06509 | 23186 ft | 299 kts | 269° |
| 2026-05-07 00:43 | 39.82123 | -73.09208 | 22518 ft | 295 kts | 269° |
| 2026-05-07 00:44 | 39.82099 | -73.11854 | 21871 ft | 291 kts | 269° |
| 2026-05-07 00:44 | 39.82075 | -73.14472 | 21239 ft | 288 kts | 269° |
| 2026-05-07 00:44 | 39.82052 | -73.17060 | 20620 ft | 285 kts | 269° |
| 2026-05-07 00:44 | 39.82028 | -73.19634 | 19995 ft | 283 kts | 269° |
| 2026-05-07 00:45 | 39.82005 | -73.22206 | 19237 ft | 287 kts | 269° |
| 2026-05-07 00:45 | 39.81980 | -73.24830 | 18418 ft | 292 kts | 269° |
| 2026-05-07 00:45 | 39.81955 | -73.27491 | 17543 ft | 297 kts | 269° |
| 2026-05-07 00:45 | 39.81929 | -73.30189 | 16674 ft | 300 kts | 269° |
| 2026-05-07 00:46 | 39.81903 | -73.32882 | 15816 ft | 302 kts | 268° |
| 2026-05-07 00:46 | 39.81875 | -73.35625 | 14972 ft | 304 kts | 268° |
| 2026-05-07 00:46 | 39.81846 | -73.38379 | 14147 ft | 305 kts | 268° |
| 2026-05-07 00:46 | 39.81817 | -73.41145 | 13293 ft | 306 kts | 267° |
| 2026-05-07 00:47 | 39.81787 | -73.43910 | 12399 ft | 306 kts | 267° |
| 2026-05-07 00:47 | 39.81757 | -73.46670 | 11530 ft | 305 kts | 267° |
| 2026-05-07 00:47 | 39.81727 | -73.49394 | 11198 ft | 290 kts | 267° |
| 2026-05-07 00:47 | 39.81699 | -73.51930 | 10995 ft | 272 kts | 267° |
| 2026-05-07 00:48 | 39.81672 | -73.54320 | 10810 ft | 257 kts | 267° |
| 2026-05-07 00:48 | 39.81644 | -73.56612 | 10524 ft | 253 kts | 267° |
| 2026-05-07 00:48 | 39.81615 | -73.58919 | 10045 ft | 257 kts | 267° |
| 2026-05-07 00:48 | 39.81586 | -73.61243 | 9555 ft | 256 kts | 267° |
| 2026-05-07 00:49 | 39.81557 | -73.63546 | 9041 ft | 253 kts | 267° |
| 2026-05-07 00:49 | 39.81528 | -73.65829 | 8547 ft | 251 kts | 267° |
| 2026-05-07 00:49 | 39.81494 | -73.68095 | 8078 ft | 251 kts | 266° |
| 2026-05-07 00:49 | 39.81373 | -73.70343 | 7936 ft | 248 kts | 264° |
| 2026-05-07 00:50 | 39.81220 | -73.72584 | 7891 ft | 250 kts | 263° |
| 2026-05-07 00:50 | 39.81063 | -73.74831 | 7867 ft | 248 kts | 264° |
| 2026-05-07 00:50 | 39.80911 | -73.77027 | 7852 ft | 246 kts | 264° |
| 2026-05-07 00:50 | 39.80759 | -73.79245 | 7784 ft | 246 kts | 264° |
| 2026-05-07 00:51 | 39.80609 | -73.81448 | 7570 ft | 243 kts | 264° |
| 2026-05-07 00:51 | 39.80461 | -73.83642 | 7218 ft | 244 kts | 264° |
| 2026-05-07 00:51 | 39.80312 | -73.85853 | 6860 ft | 246 kts | 264° |
| 2026-05-07 00:51 | 39.80163 | -73.88067 | 6561 ft | 246 kts | 264° |
| 2026-05-07 00:52 | 39.80013 | -73.90276 | 6264 ft | 245 kts | 265° |
| 2026-05-07 00:52 | 39.79864 | -73.92480 | 6090 ft | 246 kts | 265° |
| 2026-05-07 00:52 | 39.79718 | -73.94719 | 6054 ft | 249 kts | 266° |
| 2026-05-07 00:52 | 39.79726 | -73.96958 | 6043 ft | 246 kts | 271° |
| 2026-05-07 00:53 | 39.79825 | -73.99169 | 6034 ft | 244 kts | 272° |
| 2026-05-07 00:53 | 39.79935 | -74.01374 | 6053 ft | 244 kts | 272° |
| 2026-05-07 00:53 | 39.80042 | -74.03571 | 6041 ft | 243 kts | 272° |
| 2026-05-07 00:53 | 39.80146 | -74.05770 | 6038 ft | 245 kts | 272° |
| 2026-05-07 00:54 | 39.80247 | -74.07994 | 6020 ft | 246 kts | 272° |
| 2026-05-07 00:54 | 39.80345 | -74.10195 | 6015 ft | 247 kts | 272° |
| 2026-05-07 00:54 | 39.80442 | -74.12427 | 6020 ft | 248 kts | 272° |
| 2026-05-07 00:54 | 39.80538 | -74.14662 | 6020 ft | 247 kts | 272° |
| 2026-05-07 00:55 | 39.80632 | -74.16893 | 6025 ft | 247 kts | 272° |
| 2026-05-07 00:55 | 39.80731 | -74.19131 | 6021 ft | 248 kts | 275° |
| 2026-05-07 00:55 | 39.81340 | -74.21211 | 6018 ft | 253 kts | 306° |
| 2026-05-07 00:55 | 39.82665 | -74.22759 | 6034 ft | 260 kts | 320° |
| 2026-05-07 00:56 | 39.84227 | -74.23975 | 6030 ft | 263 kts | 324° |
| 2026-05-07 00:56 | 39.85838 | -74.25096 | 6016 ft | 262 kts | 325° |
| 2026-05-07 00:56 | 39.87450 | -74.26199 | 6015 ft | 261 kts | 325° |
| 2026-05-07 00:56 | 39.89057 | -74.27306 | 6019 ft | 261 kts | 325° |
| 2026-05-07 00:57 | 39.90661 | -74.28420 | 6019 ft | 261 kts | 325° |
| 2026-05-07 00:57 | 39.92259 | -74.29540 | 6018 ft | 261 kts | 325° |
| 2026-05-07 00:57 | 39.93857 | -74.30665 | 6014 ft | 260 kts | 324° |
| 2026-05-07 00:57 | 39.95429 | -74.31778 | 6016 ft | 260 kts | 324° |
| 2026-05-07 00:58 | 39.97039 | -74.32920 | 6018 ft | 260 kts | 324° |
| 2026-05-07 00:58 | 39.98609 | -74.34038 | 6023 ft | 261 kts | 325° |
| 2026-05-07 00:58 | 40.00203 | -74.35173 | 6023 ft | 261 kts | 324° |
| 2026-05-07 00:58 | 40.01796 | -74.36310 | 6010 ft | 262 kts | 325° |
| 2026-05-07 00:59 | 40.05008 | -74.38605 | 6012 ft | 263 kts | 324° |
| 2026-05-07 00:59 | 40.06617 | -74.39756 | 6007 ft | 264 kts | 324° |
| 2026-05-07 00:59 | 40.08231 | -74.40912 | 6014 ft | 264 kts | 324° |
| 2026-05-07 01:00 | 40.09843 | -74.42065 | 6005 ft | 264 kts | 324° |
| 2026-05-07 01:00 | 40.11435 | -74.43206 | 6012 ft | 264 kts | 324° |
| 2026-05-07 01:00 | 40.13048 | -74.44363 | 6014 ft | 264 kts | 324° |
| 2026-05-07 01:00 | 40.14662 | -74.45520 | 6010 ft | 265 kts | 324° |
| 2026-05-07 01:01 | 40.16275 | -74.46678 | 6007 ft | 264 kts | 324° |
| 2026-05-07 01:01 | 40.17885 | -74.47835 | 6010 ft | 264 kts | 324° |
| 2026-05-07 01:01 | 40.19498 | -74.48992 | 6018 ft | 264 kts | 324° |
| 2026-05-07 01:01 | 40.21025 | -74.50293 | 6001 ft | 259 kts | 315° |
| 2026-05-07 01:02 | 40.22412 | -74.51784 | 6008 ft | 257 kts | 313° |
| 2026-05-07 01:02 | 40.23773 | -74.53301 | 6003 ft | 257 kts | 313° |
| 2026-05-07 01:02 | 40.25135 | -74.54813 | 6003 ft | 257 kts | 313° |
| 2026-05-07 01:02 | 40.26047 | -74.55816 | 6004 ft | 258 kts | 314° |
| 2026-05-07 01:03 | 40.27427 | -74.57324 | 6008 ft | 258 kts | 314° |
| 2026-05-07 01:03 | 40.28805 | -74.58823 | 6008 ft | 258 kts | 314° |
| 2026-05-07 01:03 | 40.30183 | -74.60321 | 5998 ft | 258 kts | 314° |
| 2026-05-07 01:03 | 40.31587 | -74.61785 | 6024 ft | 260 kts | 319° |
| 2026-05-07 01:04 | 40.33210 | -74.62902 | 6012 ft | 268 kts | 330° |
| 2026-05-07 01:04 | 40.34972 | -74.63726 | 6003 ft | 270 kts | 333° |
| 2026-05-07 01:04 | 40.36751 | -74.64508 | 6002 ft | 270 kts | 333° |
| 2026-05-07 01:04 | 40.38529 | -74.65298 | 6012 ft | 269 kts | 333° |
| 2026-05-07 01:05 | 40.40304 | -74.66093 | 6013 ft | 270 kts | 334° |
| 2026-05-07 01:05 | 40.42216 | -74.66370 | 5992 ft | 288 kts | 3° |
| 2026-05-07 01:05 | 40.44149 | -74.65522 | 6013 ft | 294 kts | 12° |
| 2026-05-07 01:05 | 40.46104 | -74.64753 | 6001 ft | 293 kts | 8° |
| 2026-05-07 01:06 | 40.48070 | -74.64055 | 5988 ft | 293 kts | 8° |
| 2026-05-07 01:06 | 40.50044 | -74.63364 | 5990 ft | 294 kts | 8° |
| 2026-05-07 01:06 | 40.52020 | -74.62676 | 5984 ft | 294 kts | 8° |
| 2026-05-07 01:06 | 40.53971 | -74.61997 | 5993 ft | 294 kts | 7° |
| 2026-05-07 01:07 | 40.55951 | -74.61304 | 5983 ft | 294 kts | 8° |
| 2026-05-07 01:07 | 40.57928 | -74.60612 | 5980 ft | 293 kts | 7° |
| 2026-05-07 01:07 | 40.59901 | -74.59916 | 5999 ft | 293 kts | 7° |
| 2026-05-07 01:07 | 40.61868 | -74.59219 | 5984 ft | 293 kts | 8° |
| 2026-05-07 01:08 | 40.63841 | -74.58522 | 5982 ft | 293 kts | 8° |
| 2026-05-07 01:08 | 40.65802 | -74.57833 | 5994 ft | 292 kts | 8° |
| 2026-05-07 01:08 | 40.67771 | -74.57150 | 5982 ft | 293 kts | 8° |
| 2026-05-07 01:08 | 40.69743 | -74.56469 | 5994 ft | 294 kts | 8° |
| 2026-05-07 01:09 | 40.71728 | -74.55783 | 5994 ft | 296 kts | 7° |
| 2026-05-07 01:09 | 40.73714 | -74.55097 | 6005 ft | 294 kts | 7° |
| 2026-05-07 01:09 | 40.75696 | -74.54407 | 6001 ft | 295 kts | 8° |
| 2026-05-07 01:09 | 40.77678 | -74.53719 | 5999 ft | 294 kts | 7° |
| 2026-05-07 01:10 | 40.79651 | -74.53030 | 6015 ft | 295 kts | 7° |
| 2026-05-07 01:10 | 40.81597 | -74.52108 | 5995 ft | 301 kts | 26° |
| 2026-05-07 01:10 | 40.83131 | -74.50229 | 6000 ft | 305 kts | 53° |
| 2026-05-07 01:10 | 40.84180 | -74.47803 | 5881 ft | 302 kts | 61° |
| 2026-05-07 01:11 | 40.85125 | -74.45334 | 5617 ft | 300 kts | 62° |
| 2026-05-07 01:11 | 40.86051 | -74.42856 | 5317 ft | 300 kts | 62° |
| 2026-05-07 01:11 | 40.86960 | -74.40399 | 5108 ft | 296 kts | 62° |
| 2026-05-07 01:11 | 40.87840 | -74.37990 | 5028 ft | 295 kts | 63° |
| 2026-05-07 01:12 | 40.88737 | -74.35535 | 5016 ft | 300 kts | 63° |
| 2026-05-07 01:12 | 40.89657 | -74.33033 | 5007 ft | 305 kts | 63° |
| 2026-05-07 01:12 | 40.90593 | -74.30501 | 5011 ft | 306 kts | 63° |
| 2026-05-07 01:12 | 40.91523 | -74.27989 | 5010 ft | 302 kts | 62° |
| 2026-05-07 01:13 | 40.92442 | -74.25500 | 5018 ft | 299 kts | 62° |
| 2026-05-07 01:13 | 40.93340 | -74.23035 | 4993 ft | 296 kts | 65° |
| 2026-05-07 01:13 | 40.93809 | -74.20382 | 5009 ft | 299 kts | 92° |
| 2026-05-07 01:13 | 40.93543 | -74.17763 | 4959 ft | 286 kts | 105° |
| 2026-05-07 01:14 | 40.93092 | -74.15223 | 4748 ft | 275 kts | 107° |
| 2026-05-07 01:14 | 40.92623 | -74.12789 | 4412 ft | 270 kts | 107° |
| 2026-05-07 01:14 | 40.92158 | -74.10431 | 4123 ft | 260 kts | 107° |
| 2026-05-07 01:14 | 40.91712 | -74.08213 | 3999 ft | 239 kts | 110° |
| 2026-05-07 01:15 | 40.90959 | -74.06420 | 4003 ft | 216 kts | 136° |
| 2026-05-07 01:15 | 40.89933 | -74.04908 | 3790 ft | 236 kts | 138° |
| 2026-05-07 01:15 | 40.88785 | -74.03305 | 3242 ft | 240 kts | 140° |
| 2026-05-07 01:15 | 40.87423 | -74.02130 | 2712 ft | 230 kts | 169° |
| 2026-05-07 01:16 | 40.85883 | -74.02043 | 2219 ft | 215 kts | 196° |
| 2026-05-07 01:16 | 40.84619 | -74.02763 | 2029 ft | 185 kts | 228° |
| 2026-05-07 01:16 | 40.83842 | -74.04002 | 1999 ft | 170 kts | 237° |
| 2026-05-07 01:16 | 40.83139 | -74.05239 | 2013 ft | 168 kts | 237° |
| 2026-05-07 01:17 | 40.82416 | -74.06517 | 2017 ft | 181 kts | 237° |
| 2026-05-07 01:17 | 40.81673 | -74.07846 | 2019 ft | 178 kts | 237° |
| 2026-05-07 01:17 | 40.80900 | -74.09111 | 1988 ft | 180 kts | 223° |
| 2026-05-07 01:17 | 40.79722 | -74.09609 | 1979 ft | 181 kts | 179° |
| 2026-05-07 01:18 | 40.78645 | -74.08897 | 1929 ft | 171 kts | 159° |
| 2026-05-07 01:18 | 40.77588 | -74.08529 | 1723 ft | 147 kts | 192° |
| 2026-05-07 01:18 | 40.76742 | -74.09022 | 1457 ft | 128 kts | 234° |
| 2026-05-07 01:18 | 40.76346 | -74.10015 | 1231 ft | 127 kts | 253° |
| 2026-05-07 01:19 | 40.76099 | -74.11225 | 1133 ft | 140 kts | 254° |
| 2026-05-07 01:19 | 40.75579 | -74.12111 | 1295 ft | 114 kts | 224° |
| 2026-05-07 01:19 | 40.74937 | -74.12738 | 1037 ft | 115 kts | 221° |
| 2026-05-07 01:19 | 40.74233 | -74.13275 | 995 ft | 118 kts | 211° |
| 2026-05-07 01:20 | 40.73465 | -74.13788 | 861 ft | 130 kts | 211° |
| 2026-05-07 01:20 | 40.72659 | -74.14334 | 762 ft | 131 kts | 205° |
| 2026-05-07 01:20 | 40.71803 | -74.14837 | 560 ft | 131 kts | 202° |
| 2026-05-07 01:20 | 40.70989 | -74.15360 | 389 ft | 131 kts | 202° |
| 2026-05-07 01:21 | 40.70172 | -74.15885 | 152 ft | 126 kts | 201° |
| 2026-05-07 01:21 | 40.69445 | -74.16348 | 25 ft | 107 kts | 200° |
| 2026-05-07 01:21 | 40.68893 | -74.16696 | 21 ft | 55 kts | 207° |
| 2026-05-07 01:21 | 40.68718 | -74.16915 | 23 ft | 24 kts | 237° |
| 2026-05-07 01:22 | 40.68665 | -74.17022 | 21 ft | 4 kts | 236° |
| 2026-05-07 01:22 | 40.68649 | -74.17053 | 21 ft | 4 kts | 236° |
| 2026-05-07 01:22 | 40.68634 | -74.17083 | 24 ft | 4 kts | 236° |
| 2026-05-07 01:22 | 40.68628 | -74.17150 | 22 ft | 12 kts | 284° |
| 2026-05-07 01:23 | 40.68663 | -74.17255 | 24 ft | 13 kts | 297° |
| 2026-05-07 01:23 | 40.68700 | -74.17355 | 22 ft | 8 kts | 293° |
| 2026-05-07 01:23 | 40.68701 | -74.17359 | 22 ft | 0 kts | 293° |
| 2026-05-07 01:24 | 40.68703 | -74.17364 | 22 ft | 4 kts | 295° |
| 2026-05-07 01:25 | 40.68729 | -74.17430 | 22 ft | 9 kts | 298° |
| 2026-05-07 01:25 | 40.68777 | -74.17432 | 21 ft | 7 kts | 23° |
| 2026-05-07 01:25 | 40.68823 | -74.17405 | 21 ft | 7 kts | 23° |
| 2026-05-07 01:25 | 40.68867 | -74.17380 | 21 ft | 7 kts | 23° |
| 2026-05-07 01:26 | 40.68911 | -74.17355 | 21 ft | 7 kts | 23° |
| 2026-05-07 01:26 | 40.68954 | -74.17350 | 23 ft | 7 kts | 327° |
| 2026-05-07 01:26 | 40.68972 | -74.17388 | 21 ft | 0 kts | 297° |
| 2026-05-07 01:26 | 40.68974 | -74.17392 | 21 ft | 0 kts | 297° |
| 2026-05-07 01:27 | 40.68975 | -74.17396 | 21 ft | 1 kts | 297° |
| 2026-05-07 01:27 | 40.68985 | -74.17430 | 21 ft | 5 kts | 288° |
| 2026-05-07 01:27 | 40.68992 | -74.17466 | 21 ft | 3 kts | 284° |
| 2026-05-07 01:27 | 40.68993 | -74.17468 | 21 ft | 0 kts | 284° |